createdAt,value
2024-01-21T00:00:13.191Z,20.70
2024-01-21T00:01:19.845Z,19.77
2024-01-21T00:02:23.703Z,20.10
2024-01-21T00:03:27.718Z,19.30
2024-01-21T00:04:31.964Z,19.13
2024-01-21T00:05:35.958Z,19.30
2024-01-21T00:06:39.827Z,19.70
2024-01-21T00:07:43.888Z,20.47
2024-01-21T00:08:47.680Z,19.88
2024-01-21T00:09:51.491Z,19.73
2024-01-21T00:10:55.398Z,19.08
2024-01-21T00:11:59.265Z,19.77
2024-01-21T00:13:03.018Z,18.83
2024-01-21T00:14:06.924Z,19.48
2024-01-21T00:15:11.758Z,18.98
2024-01-21T00:16:15.566Z,20.33
2024-01-21T00:17:21.173Z,19.48
2024-01-21T00:18:25.096Z,19.43
2024-01-21T00:19:29.151Z,18.40
2024-01-21T00:20:33.005Z,19.98
2024-01-21T00:21:39.849Z,19.83
2024-01-21T00:22:43.730Z,18.20
2024-01-21T00:23:47.546Z,20.50
2024-01-21T00:24:51.347Z,20.17
2024-01-21T00:25:55.329Z,19.65
2024-01-21T00:26:59.174Z,18.95
2024-01-21T00:28:02.956Z,19.65
2024-01-21T00:29:06.673Z,20.17
2024-01-21T00:30:10.913Z,19.58
2024-01-21T00:31:14.811Z,22.05
2024-01-21T00:32:20.360Z,20.13
2024-01-21T00:33:24.378Z,21.38
2024-01-21T00:34:29.961Z,19.17
2024-01-21T00:35:34.257Z,17.80
2024-01-21T00:36:38.412Z,18.95
2024-01-21T00:37:42.192Z,18.35
2024-01-21T00:38:45.984Z,19.33
2024-01-21T00:39:49.809Z,17.87
2024-01-21T00:40:53.642Z,18.10
2024-01-21T00:42:04.817Z,17.88
2024-01-21T00:43:12.377Z,17.85
2024-01-21T00:44:16.209Z,17.60
2024-01-21T00:45:20.331Z,19.50
2024-01-21T00:46:24.279Z,19.27
2024-01-21T00:47:30.007Z,18.63
2024-01-21T00:48:34.114Z,17.40
2024-01-21T00:49:41.225Z,18.35
2024-01-21T00:50:45.307Z,18.00
2024-01-21T00:51:49.193Z,17.55
2024-01-21T00:52:53.046Z,17.05
2024-01-21T00:53:56.910Z,17.42
2024-01-21T00:55:00.884Z,17.35
2024-01-21T00:56:04.994Z,17.80
2024-01-21T00:57:08.808Z,17.35
2024-01-21T00:58:12.714Z,17.17
2024-01-21T00:59:17.079Z,16.73
2024-01-21T01:00:21.390Z,17.65
2024-01-21T01:01:25.210Z,19.03
2024-01-21T01:02:30.896Z,17.15
2024-01-21T01:03:36.143Z,16.45
2024-01-21T01:04:40.233Z,17.15
2024-01-21T01:05:44.392Z,17.55
2024-01-21T01:06:48.443Z,17.50
2024-01-21T01:07:52.225Z,16.50
2024-01-21T01:08:56.560Z,16.10
2024-01-21T01:10:00.535Z,17.90
2024-01-21T01:11:04.506Z,17.80
2024-01-21T01:12:08.721Z,18.40
2024-01-21T01:13:12.515Z,18.05
2024-01-21T01:14:16.393Z,16.20
2024-01-21T01:15:20.504Z,17.50
2024-01-21T01:16:24.450Z,16.75
2024-01-21T01:17:30.192Z,16.83
2024-01-21T01:18:34.334Z,16.60
2024-01-21T01:19:38.435Z,18.67
2024-01-21T01:20:42.653Z,17.77
2024-01-21T01:21:46.750Z,16.02
2024-01-21T01:22:50.609Z,17.30
2024-01-21T01:23:54.496Z,17.08
2024-01-21T01:24:58.281Z,17.55
2024-01-21T01:26:02.051Z,17.88
2024-01-21T01:27:06.447Z,20.08
2024-01-21T01:28:10.101Z,16.63
2024-01-21T01:29:13.926Z,15.55
2024-01-21T01:30:17.969Z,19.08
2024-01-21T01:31:22.332Z,16.88
2024-01-21T01:32:26.337Z,18.30
2024-01-21T01:33:32.126Z,17.87
2024-01-21T01:34:36.370Z,17.20
2024-01-21T01:35:40.415Z,18.63
2024-01-21T01:36:44.374Z,15.93
2024-01-21T01:37:48.384Z,17.02
2024-01-21T01:38:52.452Z,16.93
2024-01-21T01:39:56.329Z,16.10
2024-01-21T01:41:00.396Z,15.77
2024-01-21T01:42:04.256Z,16.75
2024-01-21T01:43:08.221Z,17.23
2024-01-21T01:44:12.026Z,14.30
2024-01-21T01:45:16.025Z,15.50
2024-01-21T01:46:19.877Z,15.25
2024-01-21T01:47:24.573Z,15.52
2024-01-21T01:48:30.986Z,19.00
2024-01-21T01:49:35.073Z,17.13
2024-01-21T01:50:39.129Z,15.32
2024-01-21T01:51:43.046Z,18.30
2024-01-21T01:52:47.469Z,18.85
2024-01-21T01:53:51.530Z,15.48
2024-01-21T01:54:55.543Z,18.00
2024-01-21T01:55:59.944Z,15.77
2024-01-21T01:57:05.634Z,15.75
2024-01-21T01:58:09.832Z,17.35
2024-01-21T01:59:16.648Z,15.82
2024-01-21T02:00:20.718Z,16.00
2024-01-21T02:01:25.126Z,15.02
2024-01-21T02:02:29.056Z,17.42
2024-01-21T02:03:35.499Z,16.42
2024-01-21T02:04:39.522Z,17.05
2024-01-21T02:05:43.500Z,15.00
2024-01-21T02:06:47.707Z,15.57
2024-01-21T02:07:51.526Z,15.70
2024-01-21T02:08:55.358Z,15.18
2024-01-21T02:09:59.288Z,14.98
2024-01-21T02:11:03.253Z,15.97
2024-01-21T02:12:07.585Z,15.82
2024-01-21T02:13:11.749Z,14.65
2024-01-21T02:14:15.646Z,14.80
2024-01-21T02:15:19.610Z,15.77
2024-01-21T02:16:23.926Z,15.70
2024-01-21T02:17:27.994Z,15.00
2024-01-21T02:18:35.589Z,17.83
2024-01-21T02:19:39.773Z,14.98
2024-01-21T02:20:43.684Z,14.50
2024-01-21T02:21:47.527Z,15.27
2024-01-21T02:22:52.239Z,16.77
2024-01-21T02:23:58.048Z,14.15
2024-01-21T02:25:01.878Z,15.30
2024-01-21T02:26:05.844Z,13.40
2024-01-21T02:27:10.006Z,14.60
2024-01-21T02:28:13.878Z,15.70
2024-01-21T02:29:20.476Z,16.23
2024-01-21T02:30:24.686Z,15.32
2024-01-21T02:31:28.439Z,15.32
2024-01-21T02:32:32.372Z,14.77
2024-01-21T02:33:36.283Z,13.77
2024-01-21T02:34:40.396Z,14.38
2024-01-21T02:35:44.364Z,15.85
2024-01-21T02:36:48.647Z,14.20
2024-01-21T02:37:52.579Z,15.50
2024-01-21T02:38:58.620Z,14.32
2024-01-21T02:40:02.579Z,15.13
2024-01-21T02:41:06.542Z,15.68
2024-01-21T02:42:10.430Z,14.57
2024-01-21T02:43:14.406Z,16.70
2024-01-21T02:44:18.255Z,16.10
2024-01-21T02:45:22.267Z,14.40
2024-01-21T02:46:26.090Z,16.08
2024-01-21T02:47:29.933Z,13.98
2024-01-21T02:48:33.719Z,15.00
2024-01-21T02:49:37.580Z,15.55
2024-01-21T02:50:41.412Z,16.55
2024-01-21T02:51:45.256Z,17.27
2024-01-21T02:52:48.989Z,15.55
2024-01-21T02:53:52.915Z,13.77
2024-01-21T02:54:58.736Z,14.60
2024-01-21T02:56:02.620Z,14.15
2024-01-21T02:57:06.657Z,15.63
2024-01-21T02:58:10.675Z,14.50
2024-01-21T02:59:14.854Z,14.60
2024-01-21T03:00:19.419Z,15.20
2024-01-21T03:01:23.577Z,14.98
2024-01-21T03:02:27.518Z,15.02
2024-01-21T03:03:31.364Z,14.02
2024-01-21T03:04:35.334Z,15.27
2024-01-21T03:05:39.331Z,15.80
2024-01-21T03:06:43.974Z,14.02
2024-01-21T03:07:47.907Z,14.43
2024-01-21T03:08:51.654Z,15.57
2024-01-21T03:09:55.664Z,14.87
2024-01-21T03:11:01.173Z,13.60
2024-01-21T03:12:05.197Z,15.80
2024-01-21T03:13:09.163Z,15.80
2024-01-21T03:14:13.077Z,14.60
2024-01-21T03:15:17.221Z,14.50
2024-01-21T03:16:21.310Z,14.77
2024-01-21T03:17:25.131Z,14.55
2024-01-21T03:18:29.106Z,15.27
2024-01-21T03:19:33.057Z,16.40
2024-01-21T03:20:37.083Z,14.63
2024-01-21T03:21:41.936Z,15.98
2024-01-21T03:22:45.749Z,18.70
2024-01-21T03:23:49.650Z,14.27
2024-01-21T03:24:53.561Z,17.73
2024-01-21T03:25:57.644Z,16.50
2024-01-21T03:27:03.135Z,14.40
2024-01-21T03:28:07.725Z,16.17
2024-01-21T03:29:11.719Z,15.75
2024-01-21T03:30:16.118Z,15.23
2024-01-21T03:31:20.793Z,14.57
2024-01-21T03:32:24.781Z,15.18
2024-01-21T03:33:28.856Z,15.98
2024-01-21T03:34:32.974Z,14.43
2024-01-21T03:35:37.687Z,16.75
2024-01-21T03:36:41.685Z,17.53
2024-01-21T03:37:45.708Z,14.80
2024-01-21T03:38:49.801Z,14.02
2024-01-21T03:39:53.663Z,15.88
2024-01-21T03:40:57.393Z,15.35
2024-01-21T03:42:03.075Z,16.53
2024-01-21T03:43:06.930Z,14.10
2024-01-21T03:44:10.928Z,14.70
2024-01-21T03:45:14.942Z,13.75
2024-01-21T03:46:23.074Z,14.70
2024-01-21T03:47:29.727Z,14.60
2024-01-21T03:48:33.617Z,15.18
2024-01-21T03:49:37.760Z,13.82
2024-01-21T03:50:41.888Z,14.43
2024-01-21T03:51:45.701Z,13.73
2024-01-21T03:52:49.964Z,13.17
2024-01-21T03:53:53.910Z,13.90
2024-01-21T03:54:57.662Z,16.10
2024-01-21T03:56:01.493Z,14.38
2024-01-21T03:57:07.297Z,14.45
2024-01-21T03:58:11.147Z,14.07
2024-01-21T03:59:15.606Z,13.73
2024-01-21T04:00:22.125Z,14.63
2024-01-21T04:01:25.994Z,14.95
2024-01-21T04:02:29.792Z,15.10
2024-01-21T04:03:34.924Z,14.47
2024-01-21T04:04:38.844Z,13.25
2024-01-21T04:05:42.707Z,14.52
2024-01-21T04:06:46.731Z,14.43
2024-01-21T04:07:50.572Z,15.50
2024-01-21T04:08:54.691Z,15.07
2024-01-21T04:09:58.680Z,13.70
2024-01-21T04:11:02.825Z,15.65
2024-01-21T04:12:08.616Z,13.55
2024-01-21T04:13:12.562Z,13.65
2024-01-21T04:14:16.615Z,15.10
2024-01-21T04:15:20.597Z,14.57
2024-01-21T04:16:24.363Z,14.48
2024-01-21T04:17:29.183Z,13.68
2024-01-21T04:18:33.137Z,14.40
2024-01-21T04:19:37.227Z,13.97
2024-01-21T04:20:41.077Z,14.50
2024-01-21T04:21:44.920Z,14.82
2024-01-21T04:22:48.702Z,14.45
2024-01-21T04:23:52.501Z,14.55
2024-01-21T04:24:56.382Z,15.33
2024-01-21T04:26:00.887Z,14.88
2024-01-21T04:27:05.421Z,15.02
2024-01-21T04:28:10.930Z,15.60
2024-01-21T04:29:14.731Z,13.23
2024-01-21T04:30:19.038Z,15.07
2024-01-21T04:31:23.225Z,14.93
2024-01-21T04:32:27.237Z,13.25
2024-01-21T04:33:31.315Z,14.57
2024-01-21T04:34:35.195Z,13.75
2024-01-21T04:35:40.158Z,13.70
2024-01-21T04:36:44.339Z,14.80
2024-01-21T04:37:48.162Z,12.88
2024-01-21T04:38:51.958Z,13.68
2024-01-21T04:39:55.792Z,13.45
2024-01-21T04:40:59.632Z,13.23
2024-01-21T04:42:03.695Z,13.45
2024-01-21T04:43:09.385Z,14.20
2024-01-21T04:44:16.373Z,13.40
2024-01-21T04:45:20.353Z,15.20
2024-01-21T04:46:24.405Z,13.63
2024-01-21T04:47:28.725Z,14.68
2024-01-21T04:48:32.686Z,13.93
2024-01-21T04:49:37.107Z,13.57
2024-01-21T04:50:40.975Z,13.77
2024-01-21T04:51:44.886Z,14.20
2024-01-21T04:52:48.965Z,15.60
2024-01-21T04:53:52.926Z,12.80
2024-01-21T04:54:56.717Z,14.00
2024-01-21T04:56:00.680Z,13.10
2024-01-21T04:57:04.886Z,13.47
2024-01-21T04:58:10.522Z,14.02
2024-01-21T04:59:14.312Z,14.10
2024-01-21T05:00:19.153Z,15.63
2024-01-21T05:01:24.757Z,16.83
2024-01-21T05:02:28.545Z,14.40
2024-01-21T05:03:32.504Z,13.70
2024-01-21T05:04:36.452Z,16.77
2024-01-21T05:05:40.383Z,13.75
2024-01-21T05:06:44.456Z,14.45
2024-01-21T05:07:48.298Z,14.93
2024-01-21T05:08:52.185Z,15.35
2024-01-21T05:09:56.350Z,15.23
2024-01-21T05:11:00.431Z,14.35
2024-01-21T05:12:05.087Z,14.32
2024-01-21T05:13:10.645Z,14.10
2024-01-21T05:14:15.539Z,14.32
2024-01-21T05:15:19.585Z,13.35
2024-01-21T05:16:23.481Z,13.40
2024-01-21T05:17:28.037Z,13.98
2024-01-21T05:18:32.081Z,13.07
2024-01-21T05:19:36.486Z,15.02
2024-01-21T05:20:40.425Z,15.55
2024-01-21T05:21:44.407Z,13.30
2024-01-21T05:22:48.286Z,14.80
2024-01-21T05:23:53.548Z,12.97
2024-01-21T05:24:57.559Z,15.10
2024-01-21T05:26:01.742Z,13.07
2024-01-21T05:27:05.963Z,14.23
2024-01-21T05:28:11.444Z,12.73
2024-01-21T05:29:15.559Z,13.10
2024-01-21T05:30:19.577Z,14.20
2024-01-21T05:31:23.748Z,14.20
2024-01-21T05:32:27.617Z,14.15
2024-01-21T05:33:31.649Z,15.10
2024-01-21T05:34:35.674Z,14.33
2024-01-21T05:35:39.449Z,14.57
2024-01-21T05:36:43.521Z,14.80
2024-01-21T05:37:50.852Z,15.43
2024-01-21T05:38:55.352Z,13.30
2024-01-21T05:40:00.691Z,14.50
2024-01-21T05:41:05.995Z,13.95
2024-01-21T05:42:13.410Z,14.45
2024-01-21T05:43:19.272Z,13.48
2024-01-21T05:44:23.048Z,14.15
2024-01-21T05:45:34.630Z,14.47
2024-01-21T05:46:38.506Z,15.82
2024-01-21T05:47:42.398Z,14.75
2024-01-21T05:48:46.688Z,13.68
2024-01-21T05:49:50.585Z,15.68
2024-01-21T05:50:54.459Z,16.83
2024-01-21T05:51:58.349Z,15.02
2024-01-21T05:53:02.240Z,16.10
2024-01-21T05:54:06.184Z,14.90
2024-01-21T05:55:10.559Z,14.27
2024-01-21T05:56:14.389Z,15.00
2024-01-21T05:57:18.555Z,14.68
2024-01-21T05:58:24.178Z,14.60
2024-01-21T05:59:28.140Z,15.07
2024-01-21T06:00:32.243Z,14.88
2024-01-21T06:01:36.506Z,14.07
2024-01-21T06:02:40.572Z,15.13
2024-01-21T06:03:44.399Z,14.15
2024-01-21T06:04:48.402Z,15.18
2024-01-21T06:05:52.486Z,15.52
2024-01-21T06:06:56.377Z,14.77
2024-01-21T06:08:00.302Z,15.18
2024-01-21T06:09:04.076Z,16.50
2024-01-21T06:10:08.645Z,15.82
2024-01-21T06:11:12.455Z,14.05
2024-01-21T06:12:16.264Z,17.10
2024-01-21T06:13:20.491Z,15.73
2024-01-21T06:14:25.896Z,16.88
2024-01-21T06:15:29.692Z,15.32
2024-01-21T06:16:33.430Z,14.68
2024-01-21T06:17:37.283Z,14.90
2024-01-21T06:18:41.181Z,13.70
2024-01-21T06:19:45.104Z,15.23
2024-01-21T06:20:48.926Z,13.52
2024-01-21T06:21:52.726Z,14.65
2024-01-21T06:22:56.527Z,15.17
2024-01-21T06:24:00.367Z,14.02
2024-01-21T06:25:04.698Z,14.07
2024-01-21T06:26:16.432Z,13.88
2024-01-21T06:27:20.377Z,13.55
2024-01-21T06:28:24.194Z,13.27
2024-01-21T06:29:29.590Z,16.20
2024-01-21T06:30:33.430Z,13.85
2024-01-21T06:31:37.257Z,15.98
2024-01-21T06:32:49.345Z,14.98
2024-01-21T06:33:57.899Z,14.43
2024-01-21T06:35:01.637Z,15.18
2024-01-21T06:36:05.955Z,14.68
2024-01-21T06:37:09.771Z,14.55
2024-01-21T06:38:13.618Z,13.85
2024-01-21T09:56:18.887Z,14.35
2024-01-21T09:57:23.066Z,14.65
2024-01-21T09:58:28.438Z,15.87
2024-01-21T09:59:32.266Z,16.25
2024-01-21T10:00:37.199Z,14.60
2024-01-21T10:01:42.011Z,15.98
2024-01-21T10:02:49.337Z,13.88
2024-01-21T10:03:56.077Z,15.37
2024-01-21T10:05:00.407Z,14.68
2024-01-21T10:06:04.241Z,16.88
2024-01-21T10:07:08.125Z,17.88
2024-01-21T10:08:12.781Z,13.52
2024-01-21T10:09:17.320Z,17.03
2024-01-21T10:10:21.410Z,13.88
2024-01-21T10:11:26.939Z,14.70
2024-01-21T10:12:30.716Z,14.38
2024-01-21T10:13:35.161Z,15.00
2024-01-21T10:14:38.913Z,15.23
2024-01-21T10:15:43.224Z,13.13
2024-01-21T10:16:47.056Z,13.93
2024-01-21T10:17:53.235Z,12.63
2024-01-21T10:18:57.266Z,16.25
2024-01-21T10:20:02.265Z,14.20
2024-01-21T10:21:07.500Z,13.82
2024-01-21T10:22:12.546Z,14.85
2024-01-21T10:23:16.315Z,15.32
2024-01-21T10:24:24.413Z,15.65
2024-01-21T10:25:28.285Z,14.37
2024-01-21T10:26:33.676Z,13.07
2024-01-21T10:27:37.645Z,12.95
2024-01-21T10:28:42.100Z,13.55
2024-01-21T10:29:47.886Z,13.98
2024-01-21T10:30:51.759Z,12.93
2024-01-21T10:31:56.206Z,13.55
2024-01-21T10:33:01.252Z,13.88
2024-01-21T10:34:05.288Z,17.25
2024-01-21T10:35:09.553Z,14.60
2024-01-21T10:36:13.550Z,14.47
2024-01-21T10:37:17.838Z,16.45
2024-01-21T10:38:22.387Z,15.48
2024-01-21T10:39:28.937Z,13.20
2024-01-21T10:40:32.626Z,14.23
2024-01-21T10:41:39.124Z,15.50
2024-01-21T10:42:44.326Z,13.80
2024-01-21T10:43:49.244Z,15.88
2024-01-21T10:44:54.139Z,15.13
2024-01-21T10:45:59.199Z,15.18
2024-01-21T10:47:04.116Z,14.53
2024-01-21T10:48:10.245Z,13.95
2024-01-21T10:49:15.557Z,14.57
2024-01-21T10:50:21.031Z,16.50
2024-01-21T10:51:25.298Z,14.30
2024-01-21T10:52:29.177Z,14.50
2024-01-21T10:53:35.064Z,15.75
2024-01-21T10:54:43.894Z,14.23
2024-01-21T10:55:49.522Z,13.57
2024-01-21T10:56:55.056Z,15.13
2024-01-21T10:57:59.120Z,14.23
2024-01-21T10:59:03.048Z,14.77
2024-01-21T11:00:08.536Z,15.63
2024-01-21T11:01:13.643Z,16.60
2024-01-21T11:02:17.772Z,12.85
2024-01-21T11:03:26.085Z,13.27
2024-01-21T11:04:30.223Z,13.40
2024-01-21T11:05:34.360Z,13.57
2024-01-21T11:06:38.286Z,13.68
2024-01-21T11:07:46.633Z,15.30
2024-01-21T20:02:47.493Z,17.42
2024-01-21T20:03:51.373Z,14.90
2024-01-21T20:04:55.132Z,16.40
2024-01-21T20:05:58.905Z,15.75
2024-01-21T20:07:02.707Z,21.43
2024-01-21T20:08:07.011Z,18.75
2024-01-21T20:09:11.837Z,18.67
2024-01-21T20:10:15.746Z,19.67
2024-01-21T20:11:19.520Z,17.48
2024-01-21T20:12:23.262Z,17.70
2024-01-21T20:13:26.957Z,18.48
2024-01-21T20:14:30.925Z,20.40
2024-01-21T20:15:34.678Z,19.45
2024-01-21T20:16:38.483Z,19.95
2024-01-21T20:17:42.322Z,20.07
2024-01-21T20:18:47.993Z,18.73
2024-01-21T20:19:51.875Z,19.52
2024-01-21T20:20:55.588Z,20.23
2024-01-21T20:21:59.355Z,20.65
2024-01-21T20:23:03.089Z,19.80
2024-01-21T20:24:07.592Z,21.05
2024-01-21T20:25:11.647Z,19.73
2024-01-21T20:26:15.707Z,20.10
2024-01-21T20:27:19.448Z,19.95
2024-01-21T20:28:23.211Z,18.87
2024-01-21T20:29:27.011Z,18.25
2024-01-21T20:30:30.897Z,19.60
2024-01-21T20:31:34.741Z,18.88
2024-01-21T20:32:38.634Z,19.30
2024-01-21T20:33:42.601Z,19.77
2024-01-21T20:34:48.070Z,20.02
2024-01-21T20:35:51.855Z,19.33
2024-01-21T20:36:55.759Z,19.83
2024-01-21T20:37:59.504Z,20.80
2024-01-21T20:39:03.224Z,18.40
2024-01-21T20:40:08.336Z,19.13
2024-01-21T20:41:12.205Z,19.25
2024-01-21T20:42:16.056Z,18.63
2024-01-21T20:43:19.826Z,18.52
2024-01-21T20:44:23.606Z,18.53
2024-01-21T20:45:27.322Z,19.02
2024-01-21T20:46:31.125Z,18.98
2024-01-21T20:47:35.028Z,18.35
2024-01-21T20:48:39.006Z,19.52
2024-01-21T20:49:42.910Z,17.23
2024-01-21T20:50:48.482Z,17.88
2024-01-21T20:51:52.924Z,18.85
2024-01-21T20:52:56.887Z,18.48
2024-01-21T20:54:00.745Z,19.17
2024-01-21T20:55:05.605Z,19.33
2024-01-21T20:56:09.646Z,20.02
2024-01-21T20:57:13.674Z,18.23
2024-01-21T20:58:17.758Z,19.50
2024-01-21T20:59:21.479Z,18.73
2024-01-21T21:00:25.532Z,17.43
2024-01-21T21:01:29.784Z,18.73
2024-01-21T21:02:33.712Z,18.88
2024-01-21T21:03:37.593Z,19.00
2024-01-21T21:04:41.380Z,17.63
2024-01-21T21:05:45.262Z,19.63
2024-01-21T21:06:50.855Z,17.55
2024-01-21T21:07:54.898Z,18.23
2024-01-21T21:08:58.820Z,17.63
2024-01-21T21:10:02.647Z,17.92
2024-01-21T21:11:06.549Z,17.07
2024-01-21T21:12:10.515Z,20.08
2024-01-21T21:13:14.433Z,19.05
2024-01-21T21:14:18.316Z,17.35
2024-01-21T21:15:22.840Z,16.42
2024-01-21T21:16:27.233Z,17.67
2024-01-21T21:17:31.914Z,17.02
2024-01-21T21:18:35.920Z,17.63
2024-01-21T21:19:42.058Z,16.35
2024-01-21T21:20:46.082Z,16.77
2024-01-21T21:21:51.485Z,16.13
2024-01-21T21:22:55.305Z,15.90
2024-01-21T21:23:59.085Z,16.50
2024-01-21T21:25:02.886Z,15.75
2024-01-21T21:26:06.779Z,17.08
2024-01-21T21:27:11.068Z,15.00
2024-01-21T21:28:14.962Z,16.83
2024-01-21T21:29:18.793Z,18.92
2024-01-21T21:30:22.552Z,16.65
2024-01-21T21:31:26.486Z,17.67
2024-01-21T21:32:30.359Z,17.17
2024-01-21T21:33:34.390Z,17.30
2024-01-21T21:34:38.249Z,16.40
2024-01-21T21:35:42.192Z,16.98
2024-01-21T21:36:45.959Z,17.48
2024-01-21T21:37:51.819Z,17.40
2024-01-21T21:38:55.660Z,17.40
2024-01-21T21:39:59.431Z,17.35
2024-01-21T21:41:03.166Z,16.33
2024-01-21T21:42:07.288Z,15.52
2024-01-21T21:43:11.158Z,17.93
2024-01-21T21:44:15.175Z,16.20
2024-01-21T21:45:19.263Z,16.67
2024-01-21T21:46:23.096Z,17.83
2024-01-21T21:47:27.059Z,17.20
2024-01-21T21:48:31.076Z,17.07
2024-01-21T21:49:34.901Z,15.65
2024-01-21T21:50:38.776Z,17.00
2024-01-21T21:51:42.572Z,16.92
2024-01-21T21:52:46.390Z,17.85
2024-01-21T21:53:52.341Z,17.43
2024-01-21T21:54:56.158Z,17.20
2024-01-21T21:55:59.873Z,16.77
2024-01-21T21:57:04.257Z,17.38
2024-01-21T21:58:08.340Z,17.08
2024-01-21T21:59:12.379Z,17.57
2024-01-21T22:00:16.911Z,18.35
2024-01-21T22:01:21.281Z,19.17
2024-01-21T22:02:25.666Z,16.30
2024-01-21T22:03:30.682Z,17.02
2024-01-21T22:04:38.742Z,17.43
2024-01-21T22:05:42.686Z,17.92
2024-01-21T22:06:46.552Z,16.48
2024-01-21T22:07:50.377Z,16.80
2024-01-21T22:08:56.169Z,17.05
2024-01-21T22:10:00.216Z,16.57
2024-01-21T22:11:04.786Z,17.67
2024-01-21T22:12:10.214Z,18.42
2024-01-21T22:13:14.484Z,17.17
2024-01-21T22:14:18.432Z,16.98
2024-01-21T22:15:22.426Z,16.77
2024-01-21T22:16:26.268Z,17.42
2024-01-21T22:17:30.413Z,15.90
2024-01-21T22:18:34.574Z,18.45
2024-01-21T22:19:41.236Z,17.25
2024-01-21T22:20:45.409Z,17.20
2024-01-21T22:21:49.992Z,16.73
2024-01-21T22:22:53.702Z,17.58
2024-01-21T22:23:59.175Z,16.48
2024-01-21T22:25:03.075Z,17.83
2024-01-21T22:26:06.968Z,15.90
2024-01-21T22:27:10.926Z,16.45
2024-01-21T22:28:14.680Z,16.40
2024-01-21T22:29:18.548Z,16.58
2024-01-21T22:30:22.269Z,17.65
2024-01-21T22:31:26.068Z,16.33
2024-01-21T22:32:29.772Z,16.95
2024-01-21T22:33:33.557Z,16.75
2024-01-21T22:34:37.387Z,17.60
2024-01-21T22:35:41.286Z,18.50
2024-01-21T22:36:45.317Z,18.20
2024-01-21T22:37:49.232Z,17.65
2024-01-21T22:38:53.036Z,18.40
2024-01-21T22:39:58.437Z,17.60
2024-01-21T22:41:02.218Z,16.38
2024-01-21T22:42:06.776Z,17.13
2024-01-21T22:43:10.562Z,16.98
2024-01-21T22:44:14.412Z,17.17
2024-01-21T22:45:18.678Z,16.90
2024-01-21T22:46:22.571Z,17.33
2024-01-21T22:47:26.371Z,16.77
2024-01-21T22:48:30.391Z,17.42
2024-01-21T22:49:34.327Z,17.02
2024-01-21T22:50:38.386Z,19.00
2024-01-21T22:51:42.196Z,18.15
2024-01-21T22:52:46.048Z,17.37
2024-01-21T22:53:49.852Z,17.20
2024-01-21T22:54:53.549Z,18.83
2024-01-21T22:55:58.954Z,17.77
2024-01-21T22:57:02.856Z,17.58
2024-01-21T22:58:06.877Z,19.10
2024-01-21T22:59:10.619Z,18.13
2024-01-21T23:00:16.490Z,17.60
2024-01-21T23:01:20.560Z,19.75
2024-01-21T23:02:24.446Z,19.45
2024-01-21T23:03:29.077Z,19.13
2024-01-21T23:04:32.891Z,18.38
2024-01-21T23:05:36.668Z,18.48
2024-01-21T23:06:40.670Z,17.00
2024-01-21T23:07:44.452Z,17.90
2024-01-21T23:08:48.287Z,19.17
2024-01-21T23:09:52.107Z,20.27
2024-01-21T23:10:57.577Z,18.67
2024-01-21T23:12:01.498Z,17.90
2024-01-21T23:13:05.297Z,19.48
2024-01-21T23:14:09.136Z,19.00
2024-01-21T23:15:13.029Z,21.00
2024-01-21T23:16:16.817Z,20.15
2024-01-21T23:17:20.505Z,18.42
2024-01-21T23:18:24.537Z,19.35
2024-01-21T23:19:28.387Z,17.73
2024-01-21T23:20:32.176Z,18.45
2024-01-21T23:21:35.946Z,20.48
2024-01-21T23:22:39.775Z,19.00
2024-01-21T23:23:43.600Z,18.67
2024-01-21T23:24:48.053Z,19.37
2024-01-21T23:25:51.857Z,21.55
2024-01-21T23:26:57.326Z,20.02
2024-01-21T23:28:01.118Z,20.30
2024-01-21T23:29:04.932Z,19.02
2024-01-21T23:30:10.887Z,18.80
2024-01-21T23:31:14.865Z,20.33
2024-01-21T23:32:18.718Z,21.02
2024-01-21T23:33:22.704Z,20.10
2024-01-21T23:34:26.628Z,18.38
2024-01-21T23:35:30.652Z,18.07
2024-01-21T23:36:34.388Z,18.13
2024-01-21T23:37:38.163Z,19.05
2024-01-21T23:38:41.969Z,18.45
2024-01-21T23:39:47.880Z,19.00
2024-01-21T23:40:51.707Z,19.00
2024-01-21T23:41:57.222Z,19.67
2024-01-21T23:43:01.040Z,21.50
2024-01-21T23:44:04.792Z,18.92
2024-01-21T23:45:09.681Z,19.30
2024-01-21T23:46:13.458Z,19.58
2024-01-21T23:47:17.287Z,21.03
2024-01-21T23:48:21.177Z,19.23
2024-01-21T23:49:25.022Z,20.00
2024-01-21T23:50:28.927Z,20.23
2024-01-21T23:51:32.720Z,19.17
2024-01-21T23:52:36.466Z,21.53
2024-01-21T23:53:40.208Z,19.25
2024-01-21T23:54:44.838Z,18.20
2024-01-21T23:55:49.326Z,19.15
2024-01-21T23:56:53.116Z,18.13
2024-01-21T23:57:59.409Z,18.73
2024-01-21T23:59:03.213Z,18.75
